createdAt,value
2023-01-08T00:18:28.420Z,19.8
2023-01-08T00:48:28.441Z,19.8
2023-01-08T01:18:28.463Z,19.7
2023-01-08T01:48:28.447Z,19.6
2023-01-08T02:18:28.429Z,19.6
2023-01-08T02:48:28.139Z,19.6
2023-01-08T03:18:28.459Z,19.5
2023-01-08T03:48:28.425Z,19.5
2023-01-08T04:18:28.432Z,19.5
2023-01-08T04:48:28.450Z,19.4
2023-01-08T05:18:28.461Z,19.4
2023-01-08T05:48:28.451Z,19.5
2023-01-08T06:18:28.447Z,19.6
2023-01-08T06:48:28.401Z,19.8
2023-01-08T07:18:28.428Z,20.0
2023-01-08T07:48:28.422Z,20.0
2023-01-08T08:18:28.445Z,20.1
2023-01-08T08:48:28.448Z,20.1
2023-01-08T09:18:28.191Z,20.1
2023-01-08T09:48:28.457Z,20.3
2023-01-08T10:18:28.559Z,20.5
2023-01-08T10:48:28.121Z,20.5
2023-01-08T11:18:28.422Z,20.6
2023-01-08T11:48:28.186Z,20.6
2023-01-08T12:18:28.394Z,20.6
2023-01-08T12:48:28.389Z,20.6
2023-01-08T13:18:28.427Z,20.6
2023-01-08T13:48:28.143Z,20.6
2023-01-08T14:18:28.387Z,20.6
2023-01-08T14:48:28.483Z,20.6
2023-01-08T15:18:28.374Z,20.6
2023-01-08T15:48:28.386Z,20.6
2023-01-08T16:18:28.413Z,20.7
2023-01-08T16:48:28.407Z,20.8
2023-01-08T17:18:28.379Z,20.8
2023-01-08T17:48:28.447Z,20.8
2023-01-08T18:18:28.391Z,20.8
2023-01-08T18:48:28.371Z,20.8
2023-01-08T19:18:28.360Z,20.8
2023-01-08T19:48:28.375Z,20.7
2023-01-08T20:18:28.383Z,20.6
2023-01-08T20:48:28.388Z,20.5
2023-01-08T21:18:28.386Z,20.4
2023-01-08T21:48:28.348Z,20.3
2023-01-08T22:18:28.384Z,20.2
2023-01-08T22:48:28.366Z,20.1
2023-01-08T23:18:28.385Z,20.0
2023-01-08T23:48:28.363Z,20.0
